sensor_id;sensor_type;location;lat;lon;timestamp;temperature;humidity
9509;DHT22;4792;50.088;8.122;2022-10-17T00:01:05;15.60;99.90
9509;DHT22;4792;50.088;8.122;2022-10-17T00:03:36;15.60;99.90
9509;DHT22;4792;50.088;8.122;2022-10-17T00:06:06;15.60;99.90
9509;DHT22;4792;50.088;8.122;2022-10-17T00:08:34;15.60;99.90
9509;DHT22;4792;50.088;8.122;2022-10-17T00:11:05;15.50;99.90
9509;DHT22;4792;50.088;8.122;2022-10-17T00:13:34;15.40;99.90
9509;DHT22;4792;50.088;8.122;2022-10-17T00:16:02;15.40;99.90
9509;DHT22;4792;50.088;8.122;2022-10-17T00:18:31;15.30;99.90
9509;DHT22;4792;50.088;8.122;2022-10-17T00:21:01;15.30;99.90
9509;DHT22;4792;50.088;8.122;2022-10-17T00:23:29;15.20;99.90
9509;DHT22;4792;50.088;8.122;2022-10-17T00:25:58;15.20;99.90
9509;DHT22;4792;50.088;8.122;2022-10-17T00:28:27;15.20;99.90
9509;DHT22;4792;50.088;8.122;2022-10-17T00:30:56;15.10;99.90
9509;DHT22;4792;50.088;8.122;2022-10-17T00:33:24;15.00;99.90
9509;DHT22;4792;50.088;8.122;2022-10-17T00:36:03;15.00;99.90
9509;DHT22;4792;50.088;8.122;2022-10-17T00:38:32;15.00;99.90
9509;DHT22;4792;50.088;8.122;2022-10-17T00:41:00;15.00;99.90
9509;DHT22;4792;50.088;8.122;2022-10-17T00:43:30;15.00;99.90
9509;DHT22;4792;50.088;8.122;2022-10-17T00:46:15;15.00;99.90
9509;DHT22;4792;50.088;8.122;2022-10-17T00:48:43;15.00;99.90
9509;DHT22;4792;50.088;8.122;2022-10-17T00:51:13;15.00;99.90
9509;DHT22;4792;50.088;8.122;2022-10-17T00:53:42;15.00;99.90
9509;DHT22;4792;50.088;8.122;2022-10-17T00:56:10;15.00;99.90
9509;DHT22;4792;50.088;8.122;2022-10-17T00:58:39;15.00;99.90
9509;DHT22;4792;50.088;8.122;2022-10-17T01:01:07;15.00;99.90
9509;DHT22;4792;50.088;8.122;2022-10-17T01:03:36;14.90;99.90
9509;DHT22;4792;50.088;8.122;2022-10-17T01:06:04;14.90;99.90
9509;DHT22;4792;50.088;8.122;2022-10-17T01:08:33;14.90;99.90
9509;DHT22;4792;50.088;8.122;2022-10-17T01:11:15;14.90;99.90
9509;DHT22;4792;50.088;8.122;2022-10-17T01:13:50;14.90;99.90
9509;DHT22;4792;50.088;8.122;2022-10-17T01:16:27;14.80;99.90
9509;DHT22;4792;50.088;8.122;2022-10-17T01:19:03;14.80;99.90
9509;DHT22;4792;50.088;8.122;2022-10-17T01:21:43;14.80;99.90
9509;DHT22;4792;50.088;8.122;2022-10-17T01:24:44;14.70;99.90
9509;DHT22;4792;50.088;8.122;2022-10-17T01:27:45;14.70;99.90
9509;DHT22;4792;50.088;8.122;2022-10-17T01:33:35;14.70;99.90
9509;DHT22;4792;50.088;8.122;2022-10-17T01:36:09;14.70;99.90
9509;DHT22;4792;50.088;8.122;2022-10-17T01:38:44;14.70;99.90
9509;DHT22;4792;50.088;8.122;2022-10-17T01:41:18;14.70;99.90
9509;DHT22;4792;50.088;8.122;2022-10-17T01:43:57;14.70;99.90
9509;DHT22;4792;50.088;8.122;2022-10-17T01:46:29;14.60;99.90
9509;DHT22;4792;50.088;8.122;2022-10-17T01:49:02;14.60;99.90
9509;DHT22;4792;50.088;8.122;2022-10-17T01:51:35;14.60;99.90
9509;DHT22;4792;50.088;8.122;2022-10-17T01:54:09;14.60;99.90
9509;DHT22;4792;50.088;8.122;2022-10-17T01:56:39;14.50;99.90
9509;DHT22;4792;50.088;8.122;2022-10-17T01:59:11;14.50;99.90
9509;DHT22;4792;50.088;8.122;2022-10-17T02:01:41;14.60;99.90
9509;DHT22;4792;50.088;8.122;2022-10-17T02:04:12;14.60;99.90
9509;DHT22;4792;50.088;8.122;2022-10-17T02:06:42;14.50;99.90
9509;DHT22;4792;50.088;8.122;2022-10-17T02:09:21;14.50;99.90
9509;DHT22;4792;50.088;8.122;2022-10-17T02:12:00;14.50;99.90
9509;DHT22;4792;50.088;8.122;2022-10-17T02:14:37;14.50;99.90
9509;DHT22;4792;50.088;8.122;2022-10-17T02:17:13;14.50;99.90
9509;DHT22;4792;50.088;8.122;2022-10-17T02:19:54;14.50;99.90
9509;DHT22;4792;50.088;8.122;2022-10-17T02:22:33;14.50;99.90
9509;DHT22;4792;50.088;8.122;2022-10-17T02:25:08;14.40;99.90
9509;DHT22;4792;50.088;8.122;2022-10-17T02:27:43;14.40;99.90
9509;DHT22;4792;50.088;8.122;2022-10-17T02:30:18;14.40;99.90
9509;DHT22;4792;50.088;8.122;2022-10-17T02:32:55;14.40;99.90
9509;DHT22;4792;50.088;8.122;2022-10-17T02:35:29;14.40;99.90
9509;DHT22;4792;50.088;8.122;2022-10-17T02:37:58;14.40;99.90
9509;DHT22;4792;50.088;8.122;2022-10-17T02:40:29;14.40;99.90
9509;DHT22;4792;50.088;8.122;2022-10-17T02:42:58;14.40;99.90
9509;DHT22;4792;50.088;8.122;2022-10-17T02:45:28;14.40;99.90
9509;DHT22;4792;50.088;8.122;2022-10-17T02:48:03;14.40;99.90
9509;DHT22;4792;50.088;8.122;2022-10-17T02:50:39;14.40;99.90
9509;DHT22;4792;50.088;8.122;2022-10-17T02:53:11;14.40;99.90
9509;DHT22;4792;50.088;8.122;2022-10-17T02:55:46;14.40;99.90
9509;DHT22;4792;50.088;8.122;2022-10-17T02:58:18;14.40;99.90
9509;DHT22;4792;50.088;8.122;2022-10-17T03:00:47;14.40;99.90
9509;DHT22;4792;50.088;8.122;2022-10-17T03:03:21;14.40;99.90
9509;DHT22;4792;50.088;8.122;2022-10-17T03:05:51;14.40;99.90
9509;DHT22;4792;50.088;8.122;2022-10-17T03:08:20;14.40;99.90
9509;DHT22;4792;50.088;8.122;2022-10-17T03:10:48;14.40;99.90
9509;DHT22;4792;50.088;8.122;2022-10-17T03:13:17;14.30;99.90
9509;DHT22;4792;50.088;8.122;2022-10-17T03:15:45;14.30;99.90
9509;DHT22;4792;50.088;8.122;2022-10-17T03:18:13;14.30;99.90
9509;DHT22;4792;50.088;8.122;2022-10-17T03:20:41;14.30;99.90
9509;DHT22;4792;50.088;8.122;2022-10-17T03:23:10;14.30;99.90
9509;DHT22;4792;50.088;8.122;2022-10-17T03:25:39;14.30;99.90
9509;DHT22;4792;50.088;8.122;2022-10-17T03:28:08;14.30;99.90
9509;DHT22;4792;50.088;8.122;2022-10-17T03:30:38;14.30;99.90
9509;DHT22;4792;50.088;8.122;2022-10-17T03:33:06;14.30;99.90
9509;DHT22;4792;50.088;8.122;2022-10-17T03:35:37;14.30;99.90
9509;DHT22;4792;50.088;8.122;2022-10-17T03:38:06;14.30;99.90
9509;DHT22;4792;50.088;8.122;2022-10-17T03:40:36;14.30;99.90
9509;DHT22;4792;50.088;8.122;2022-10-17T03:43:04;14.30;99.90
9509;DHT22;4792;50.088;8.122;2022-10-17T03:45:32;14.30;99.90
9509;DHT22;4792;50.088;8.122;2022-10-17T03:48:00;14.30;99.90
9509;DHT22;4792;50.088;8.122;2022-10-17T03:50:29;14.30;99.90
9509;DHT22;4792;50.088;8.122;2022-10-17T03:52:57;14.30;99.90
9509;DHT22;4792;50.088;8.122;2022-10-17T03:55:25;14.30;99.90
9509;DHT22;4792;50.088;8.122;2022-10-17T03:57:54;14.30;99.90
9509;DHT22;4792;50.088;8.122;2022-10-17T04:00:23;14.30;99.90
9509;DHT22;4792;50.088;8.122;2022-10-17T04:02:51;14.30;99.90
9509;DHT22;4792;50.088;8.122;2022-10-17T04:05:19;14.30;99.90
9509;DHT22;4792;50.088;8.122;2022-10-17T04:07:47;14.30;99.90
9509;DHT22;4792;50.088;8.122;2022-10-17T04:10:15;14.30;99.90
9509;DHT22;4792;50.088;8.122;2022-10-17T04:12:44;14.30;99.90
9509;DHT22;4792;50.088;8.122;2022-10-17T04:15:13;14.30;99.90
9509;DHT22;4792;50.088;8.122;2022-10-17T04:17:41;14.40;99.90
9509;DHT22;4792;50.088;8.122;2022-10-17T04:20:10;14.40;99.90
9509;DHT22;4792;50.088;8.122;2022-10-17T04:22:38;14.40;99.90
9509;DHT22;4792;50.088;8.122;2022-10-17T04:25:06;14.40;99.90
9509;DHT22;4792;50.088;8.122;2022-10-17T04:27:34;14.40;99.90
9509;DHT22;4792;50.088;8.122;2022-10-17T04:30:03;14.40;99.90
9509;DHT22;4792;50.088;8.122;2022-10-17T04:32:35;14.40;99.90
9509;DHT22;4792;50.088;8.122;2022-10-17T04:35:04;14.60;99.90
9509;DHT22;4792;50.088;8.122;2022-10-17T04:37:32;14.40;99.90
9509;DHT22;4792;50.088;8.122;2022-10-17T04:40:00;14.40;99.90
9509;DHT22;4792;50.088;8.122;2022-10-17T04:42:29;14.30;99.90
9509;DHT22;4792;50.088;8.122;2022-10-17T04:44:57;14.30;99.90
9509;DHT22;4792;50.088;8.122;2022-10-17T04:47:25;14.30;99.90
9509;DHT22;4792;50.088;8.122;2022-10-17T04:49:55;14.30;99.90
9509;DHT22;4792;50.088;8.122;2022-10-17T04:52:23;14.30;99.90
9509;DHT22;4792;50.088;8.122;2022-10-17T04:54:52;14.30;99.90
9509;DHT22;4792;50.088;8.122;2022-10-17T04:57:21;14.30;99.90
9509;DHT22;4792;50.088;8.122;2022-10-17T04:59:49;14.30;99.90
9509;DHT22;4792;50.088;8.122;2022-10-17T05:02:17;14.30;99.90
9509;DHT22;4792;50.088;8.122;2022-10-17T05:04:46;14.30;99.90
9509;DHT22;4792;50.088;8.122;2022-10-17T05:07:15;14.40;99.90
9509;DHT22;4792;50.088;8.122;2022-10-17T05:09:43;14.40;99.90
9509;DHT22;4792;50.088;8.122;2022-10-17T05:12:11;14.40;99.90
9509;DHT22;4792;50.088;8.122;2022-10-17T05:14:39;14.30;99.90
9509;DHT22;4792;50.088;8.122;2022-10-17T05:17:07;14.40;99.90
9509;DHT22;4792;50.088;8.122;2022-10-17T05:19:36;14.30;99.90
9509;DHT22;4792;50.088;8.122;2022-10-17T05:22:04;14.30;99.90
9509;DHT22;4792;50.088;8.122;2022-10-17T05:24:33;14.30;99.90
9509;DHT22;4792;50.088;8.122;2022-10-17T05:27:01;14.30;99.90
9509;DHT22;4792;50.088;8.122;2022-10-17T05:29:29;14.30;99.90
9509;DHT22;4792;50.088;8.122;2022-10-17T05:31:58;14.30;99.90
9509;DHT22;4792;50.088;8.122;2022-10-17T05:34:32;14.30;99.90
9509;DHT22;4792;50.088;8.122;2022-10-17T05:37:00;14.30;99.90
9509;DHT22;4792;50.088;8.122;2022-10-17T05:39:29;14.30;99.90
9509;DHT22;4792;50.088;8.122;2022-10-17T05:41:58;14.30;99.90
9509;DHT22;4792;50.088;8.122;2022-10-17T05:44:26;14.30;99.90
9509;DHT22;4792;50.088;8.122;2022-10-17T05:46:54;14.30;99.90
9509;DHT22;4792;50.088;8.122;2022-10-17T05:49:22;14.30;99.90
9509;DHT22;4792;50.088;8.122;2022-10-17T05:52:10;14.20;99.90
9509;DHT22;4792;50.088;8.122;2022-10-17T05:54:38;14.30;99.90
9509;DHT22;4792;50.088;8.122;2022-10-17T05:57:08;14.30;99.90
9509;DHT22;4792;50.088;8.122;2022-10-17T05:59:36;14.30;99.90
9509;DHT22;4792;50.088;8.122;2022-10-17T06:02:04;14.30;99.90
9509;DHT22;4792;50.088;8.122;2022-10-17T06:04:32;14.40;99.90
9509;DHT22;4792;50.088;8.122;2022-10-17T06:07:00;14.40;99.90
9509;DHT22;4792;50.088;8.122;2022-10-17T06:09:29;14.40;99.90
9509;DHT22;4792;50.088;8.122;2022-10-17T06:11:57;14.50;99.90
9509;DHT22;4792;50.088;8.122;2022-10-17T06:14:26;14.50;99.90
9509;DHT22;4792;50.088;8.122;2022-10-17T06:16:55;14.50;99.90
9509;DHT22;4792;50.088;8.122;2022-10-17T06:19:23;14.50;99.90
9509;DHT22;4792;50.088;8.122;2022-10-17T06:21:51;14.50;99.90
9509;DHT22;4792;50.088;8.122;2022-10-17T06:24:19;14.60;99.90
9509;DHT22;4792;50.088;8.122;2022-10-17T06:26:47;14.60;99.90
9509;DHT22;4792;50.088;8.122;2022-10-17T06:29:16;14.70;99.90
9509;DHT22;4792;50.088;8.122;2022-10-17T06:31:45;14.80;99.90
9509;DHT22;4792;50.088;8.122;2022-10-17T06:34:14;14.80;99.90
9509;DHT22;4792;50.088;8.122;2022-10-17T06:36:42;14.90;99.90
9509;DHT22;4792;50.088;8.122;2022-10-17T06:39:10;14.90;99.90
9509;DHT22;4792;50.088;8.122;2022-10-17T06:41:39;14.90;99.90
9509;DHT22;4792;50.088;8.122;2022-10-17T06:44:09;15.00;99.90
9509;DHT22;4792;50.088;8.122;2022-10-17T06:46:38;15.10;99.90
9509;DHT22;4792;50.088;8.122;2022-10-17T06:49:09;15.20;99.90
9509;DHT22;4792;50.088;8.122;2022-10-17T06:51:38;15.20;99.90
9509;DHT22;4792;50.088;8.122;2022-10-17T06:54:06;15.30;99.90
9509;DHT22;4792;50.088;8.122;2022-10-17T06:56:34;15.40;99.90
9509;DHT22;4792;50.088;8.122;2022-10-17T06:59:02;15.40;99.90
9509;DHT22;4792;50.088;8.122;2022-10-17T07:01:31;15.50;99.90
9509;DHT22;4792;50.088;8.122;2022-10-17T07:04:00;15.60;99.90
9509;DHT22;4792;50.088;8.122;2022-10-17T07:06:30;15.60;99.90
9509;DHT22;4792;50.088;8.122;2022-10-17T07:08:58;15.70;99.90
9509;DHT22;4792;50.088;8.122;2022-10-17T07:11:28;15.80;99.90
9509;DHT22;4792;50.088;8.122;2022-10-17T07:13:56;15.80;99.90
9509;DHT22;4792;50.088;8.122;2022-10-17T07:16:24;15.80;99.90
9509;DHT22;4792;50.088;8.122;2022-10-17T07:18:53;15.80;99.90
9509;DHT22;4792;50.088;8.122;2022-10-17T07:21:21;15.80;99.90
9509;DHT22;4792;50.088;8.122;2022-10-17T07:23:50;15.90;99.90
9509;DHT22;4792;50.088;8.122;2022-10-17T07:26:18;16.10;99.90
9509;DHT22;4792;50.088;8.122;2022-10-17T07:28:51;16.10;99.90
9509;DHT22;4792;50.088;8.122;2022-10-17T07:31:22;16.20;99.90
9509;DHT22;4792;50.088;8.122;2022-10-17T07:33:50;16.30;99.90
9509;DHT22;4792;50.088;8.122;2022-10-17T07:36:18;16.40;99.90
9509;DHT22;4792;50.088;8.122;2022-10-17T07:38:46;16.50;99.90
9509;DHT22;4792;50.088;8.122;2022-10-17T07:41:16;16.60;99.90
9509;DHT22;4792;50.088;8.122;2022-10-17T07:43:47;16.80;99.90
9509;DHT22;4792;50.088;8.122;2022-10-17T07:46:15;16.90;99.90
9509;DHT22;4792;50.088;8.122;2022-10-17T07:48:43;17.10;99.90
9509;DHT22;4792;50.088;8.122;2022-10-17T07:51:12;17.10;99.90
9509;DHT22;4792;50.088;8.122;2022-10-17T07:53:40;17.20;99.90
9509;DHT22;4792;50.088;8.122;2022-10-17T07:56:16;17.20;99.90
9509;DHT22;4792;50.088;8.122;2022-10-17T07:58:44;17.20;99.90
9509;DHT22;4792;50.088;8.122;2022-10-17T08:01:14;17.20;99.90
9509;DHT22;4792;50.088;8.122;2022-10-17T08:03:44;17.10;99.90
9509;DHT22;4792;50.088;8.122;2022-10-17T08:06:13;17.10;99.90
9509;DHT22;4792;50.088;8.122;2022-10-17T08:08:42;17.10;99.90
9509;DHT22;4792;50.088;8.122;2022-10-17T08:11:13;17.10;99.90
9509;DHT22;4792;50.088;8.122;2022-10-17T08:13:43;17.10;99.90
9509;DHT22;4792;50.088;8.122;2022-10-17T08:16:11;17.20;99.90
9509;DHT22;4792;50.088;8.122;2022-10-17T08:18:41;17.30;99.90
9509;DHT22;4792;50.088;8.122;2022-10-17T08:21:10;17.40;99.90
9509;DHT22;4792;50.088;8.122;2022-10-17T08:23:39;17.60;99.90
9509;DHT22;4792;50.088;8.122;2022-10-17T08:26:08;17.60;99.90
9509;DHT22;4792;50.088;8.122;2022-10-17T08:28:39;17.60;99.90
9509;DHT22;4792;50.088;8.122;2022-10-17T08:31:10;17.60;99.90
9509;DHT22;4792;50.088;8.122;2022-10-17T08:33:39;17.70;99.90
9509;DHT22;4792;50.088;8.122;2022-10-17T08:36:12;17.70;99.90
9509;DHT22;4792;50.088;8.122;2022-10-17T08:38:41;17.80;99.90
9509;DHT22;4792;50.088;8.122;2022-10-17T08:41:14;17.90;99.90
9509;DHT22;4792;50.088;8.122;2022-10-17T08:43:57;18.10;99.90
9509;DHT22;4792;50.088;8.122;2022-10-17T08:46:31;18.10;99.90
9509;DHT22;4792;50.088;8.122;2022-10-17T08:49:01;18.10;99.90
9509;DHT22;4792;50.088;8.122;2022-10-17T08:51:38;18.10;99.90
9509;DHT22;4792;50.088;8.122;2022-10-17T08:54:14;17.90;99.90
9509;DHT22;4792;50.088;8.122;2022-10-17T08:56:45;17.90;99.90
9509;DHT22;4792;50.088;8.122;2022-10-17T08:59:17;18.00;99.90
9509;DHT22;4792;50.088;8.122;2022-10-17T09:01:54;18.20;99.90
9509;DHT22;4792;50.088;8.122;2022-10-17T09:04:36;18.20;99.90
9509;DHT22;4792;50.088;8.122;2022-10-17T09:07:12;18.40;99.90
9509;DHT22;4792;50.088;8.122;2022-10-17T09:09:51;18.70;99.90
9509;DHT22;4792;50.088;8.122;2022-10-17T09:12:26;18.90;99.90
9509;DHT22;4792;50.088;8.122;2022-10-17T09:15:30;18.90;99.90
9509;DHT22;4792;50.088;8.122;2022-10-17T09:18:08;19.10;99.90
9509;DHT22;4792;50.088;8.122;2022-10-17T09:20:42;19.10;99.90
9509;DHT22;4792;50.088;8.122;2022-10-17T09:23:15;19.40;99.90
9509;DHT22;4792;50.088;8.122;2022-10-17T09:25:45;19.50;99.90
9509;DHT22;4792;50.088;8.122;2022-10-17T09:28:18;19.60;99.90
9509;DHT22;4792;50.088;8.122;2022-10-17T09:30:53;19.70;99.90
9509;DHT22;4792;50.088;8.122;2022-10-17T09:33:27;19.80;99.90
9509;DHT22;4792;50.088;8.122;2022-10-17T09:36:13;19.90;99.90
9509;DHT22;4792;50.088;8.122;2022-10-17T09:38:44;20.00;99.90
9509;DHT22;4792;50.088;8.122;2022-10-17T09:41:19;20.20;99.90
9509;DHT22;4792;50.088;8.122;2022-10-17T09:44:17;20.30;99.90
9509;DHT22;4792;50.088;8.122;2022-10-17T09:49:38;20.30;99.90
9509;DHT22;4792;50.088;8.122;2022-10-17T09:52:11;20.40;99.90
9509;DHT22;4792;50.088;8.122;2022-10-17T09:54:43;20.40;99.90
9509;DHT22;4792;50.088;8.122;2022-10-17T09:57:14;20.40;99.90
9509;DHT22;4792;50.088;8.122;2022-10-17T09:59:44;20.40;99.90
9509;DHT22;4792;50.088;8.122;2022-10-17T10:02:19;20.30;99.90
9509;DHT22;4792;50.088;8.122;2022-10-17T10:04:53;20.50;99.90
9509;DHT22;4792;50.088;8.122;2022-10-17T10:07:32;20.60;99.90
9509;DHT22;4792;50.088;8.122;2022-10-17T10:10:02;20.40;99.90
9509;DHT22;4792;50.088;8.122;2022-10-17T10:12:33;20.70;99.90
9509;DHT22;4792;50.088;8.122;2022-10-17T10:15:32;20.90;99.90
9509;DHT22;4792;50.088;8.122;2022-10-17T10:18:00;21.00;99.90
9509;DHT22;4792;50.088;8.122;2022-10-17T10:20:33;21.00;99.90
9509;DHT22;4792;50.088;8.122;2022-10-17T10:23:08;21.00;99.90
9509;DHT22;4792;50.088;8.122;2022-10-17T10:25:37;20.80;99.90
9509;DHT22;4792;50.088;8.122;2022-10-17T10:28:16;20.60;99.90
9509;DHT22;4792;50.088;8.122;2022-10-17T10:30:48;20.60;99.90
9509;DHT22;4792;50.088;8.122;2022-10-17T10:33:18;20.70;99.90
9509;DHT22;4792;50.088;8.122;2022-10-17T10:35:54;20.80;99.90
9509;DHT22;4792;50.088;8.122;2022-10-17T10:38:23;20.80;99.90
9509;DHT22;4792;50.088;8.122;2022-10-17T10:40:53;20.80;99.90
9509;DHT22;4792;50.088;8.122;2022-10-17T10:43:27;20.80;99.90
9509;DHT22;4792;50.088;8.122;2022-10-17T10:45:57;20.90;99.90
9509;DHT22;4792;50.088;8.122;2022-10-17T10:48:26;21.10;99.90
9509;DHT22;4792;50.088;8.122;2022-10-17T10:50:59;21.20;99.90
9509;DHT22;4792;50.088;8.122;2022-10-17T10:53:37;21.30;99.90
9509;DHT22;4792;50.088;8.122;2022-10-17T10:56:10;21.40;99.90
9509;DHT22;4792;50.088;8.122;2022-10-17T10:58:52;21.60;99.90
9509;DHT22;4792;50.088;8.122;2022-10-17T11:01:27;21.60;99.90
9509;DHT22;4792;50.088;8.122;2022-10-17T11:04:22;21.60;99.90
9509;DHT22;4792;50.088;8.122;2022-10-17T11:06:59;21.90;99.90
9509;DHT22;4792;50.088;8.122;2022-10-17T11:09:35;22.10;99.90
9509;DHT22;4792;50.088;8.122;2022-10-17T11:12:12;22.10;99.90
9509;DHT22;4792;50.088;8.122;2022-10-17T11:14:47;21.90;99.90
9509;DHT22;4792;50.088;8.122;2022-10-17T11:17:25;22.00;99.90
9509;DHT22;4792;50.088;8.122;2022-10-17T11:20:09;21.90;99.90
9509;DHT22;4792;50.088;8.122;2022-10-17T11:22:42;22.10;99.90
9509;DHT22;4792;50.088;8.122;2022-10-17T11:25:28;21.90;99.90
9509;DHT22;4792;50.088;8.122;2022-10-17T11:27:57;21.90;99.90
9509;DHT22;4792;50.088;8.122;2022-10-17T11:30:42;22.00;99.90
9509;DHT22;4792;50.088;8.122;2022-10-17T11:33:16;22.10;99.90
9509;DHT22;4792;50.088;8.122;2022-10-17T11:35:47;22.20;99.90
9509;DHT22;4792;50.088;8.122;2022-10-17T11:38:24;22.20;99.90
9509;DHT22;4792;50.088;8.122;2022-10-17T11:40:57;22.50;99.90
9509;DHT22;4792;50.088;8.122;2022-10-17T11:43:28;22.40;99.90
9509;DHT22;4792;50.088;8.122;2022-10-17T11:46:01;22.10;99.90
9509;DHT22;4792;50.088;8.122;2022-10-17T11:48:34;22.30;99.90
9509;DHT22;4792;50.088;8.122;2022-10-17T11:51:08;22.40;99.90
9509;DHT22;4792;50.088;8.122;2022-10-17T11:54:05;22.90;99.90
9509;DHT22;4792;50.088;8.122;2022-10-17T11:56:40;22.90;99.90
9509;DHT22;4792;50.088;8.122;2022-10-17T11:59:27;22.60;99.90
9509;DHT22;4792;50.088;8.122;2022-10-17T12:02:03;22.60;99.90
9509;DHT22;4792;50.088;8.122;2022-10-17T12:04:43;22.70;99.90
9509;DHT22;4792;50.088;8.122;2022-10-17T12:07:21;22.70;99.90
9509;DHT22;4792;50.088;8.122;2022-10-17T12:09:58;22.90;99.90
9509;DHT22;4792;50.088;8.122;2022-10-17T12:12:28;23.20;99.90
9509;DHT22;4792;50.088;8.122;2022-10-17T12:15:28;23.40;99.90
9509;DHT22;4792;50.088;8.122;2022-10-17T12:17:58;23.30;99.90
9509;DHT22;4792;50.088;8.122;2022-10-17T12:20:33;23.50;99.90
9509;DHT22;4792;50.088;8.122;2022-10-17T12:25:52;22.90;99.90
9509;DHT22;4792;50.088;8.122;2022-10-17T12:28:27;22.90;99.90
9509;DHT22;4792;50.088;8.122;2022-10-17T12:30:58;23.00;99.90
9509;DHT22;4792;50.088;8.122;2022-10-17T12:33:32;23.20;99.90
9509;DHT22;4792;50.088;8.122;2022-10-17T12:42:43;22.50;99.90
9509;DHT22;4792;50.088;8.122;2022-10-17T12:45:44;22.90;99.90
9509;DHT22;4792;50.088;8.122;2022-10-17T12:51:28;22.50;99.90
9509;DHT22;4792;50.088;8.122;2022-10-17T12:54:17;22.00;99.90
9509;DHT22;4792;50.088;8.122;2022-10-17T12:56:46;22.10;99.90
9509;DHT22;4792;50.088;8.122;2022-10-17T12:59:20;22.30;99.90
9509;DHT22;4792;50.088;8.122;2022-10-17T13:01:51;22.70;99.90
9509;DHT22;4792;50.088;8.122;2022-10-17T13:04:20;23.10;99.90
9509;DHT22;4792;50.088;8.122;2022-10-17T13:06:51;23.40;99.90
9509;DHT22;4792;50.088;8.122;2022-10-17T13:09:24;23.60;99.90
9509;DHT22;4792;50.088;8.122;2022-10-17T13:11:54;23.90;99.90
9509;DHT22;4792;50.088;8.122;2022-10-17T13:14:26;24.60;99.90
9509;DHT22;4792;50.088;8.122;2022-10-17T13:16:55;25.20;99.90
9509;DHT22;4792;50.088;8.122;2022-10-17T13:19:25;24.80;99.90
9509;DHT22;4792;50.088;8.122;2022-10-17T13:21:55;24.60;99.90
9509;DHT22;4792;50.088;8.122;2022-10-17T13:24:30;24.90;99.90
9509;DHT22;4792;50.088;8.122;2022-10-17T13:27:00;25.20;99.90
9509;DHT22;4792;50.088;8.122;2022-10-17T13:29:30;25.00;99.90
9509;DHT22;4792;50.088;8.122;2022-10-17T13:32:00;25.30;99.90
9509;DHT22;4792;50.088;8.122;2022-10-17T13:34:30;25.00;99.90
9509;DHT22;4792;50.088;8.122;2022-10-17T13:37:01;24.80;99.90
9509;DHT22;4792;50.088;8.122;2022-10-17T13:39:33;25.30;99.90
9509;DHT22;4792;50.088;8.122;2022-10-17T13:42:23;25.10;99.90
9509;DHT22;4792;50.088;8.122;2022-10-17T13:44:55;25.40;99.90
9509;DHT22;4792;50.088;8.122;2022-10-17T13:47:25;25.60;99.90
9509;DHT22;4792;50.088;8.122;2022-10-17T13:49:54;25.50;99.90
9509;DHT22;4792;50.088;8.122;2022-10-17T13:52:25;25.40;99.90
9509;DHT22;4792;50.088;8.122;2022-10-17T13:55:05;25.10;99.90
9509;DHT22;4792;50.088;8.122;2022-10-17T13:57:34;25.00;99.90
9509;DHT22;4792;50.088;8.122;2022-10-17T14:00:06;24.90;99.90
9509;DHT22;4792;50.088;8.122;2022-10-17T14:02:39;24.90;99.90
9509;DHT22;4792;50.088;8.122;2022-10-17T14:05:13;25.00;99.90
9509;DHT22;4792;50.088;8.122;2022-10-17T14:07:48;24.80;99.90
9509;DHT22;4792;50.088;8.122;2022-10-17T14:10:38;24.40;99.90
9509;DHT22;4792;50.088;8.122;2022-10-17T14:13:16;23.70;99.90
9509;DHT22;4792;50.088;8.122;2022-10-17T14:15:48;23.10;99.90
9509;DHT22;4792;50.088;8.122;2022-10-17T14:18:18;22.70;99.90
9509;DHT22;4792;50.088;8.122;2022-10-17T14:20:48;22.50;99.90
9509;DHT22;4792;50.088;8.122;2022-10-17T14:23:39;22.40;99.90
9509;DHT22;4792;50.088;8.122;2022-10-17T14:26:10;22.20;99.90
9509;DHT22;4792;50.088;8.122;2022-10-17T14:28:40;22.20;99.90
9509;DHT22;4792;50.088;8.122;2022-10-17T14:31:21;22.10;99.90
9509;DHT22;4792;50.088;8.122;2022-10-17T14:33:52;21.90;99.90
9509;DHT22;4792;50.088;8.122;2022-10-17T14:36:33;21.70;99.90
9509;DHT22;4792;50.088;8.122;2022-10-17T14:39:02;21.60;99.90
9509;DHT22;4792;50.088;8.122;2022-10-17T14:41:38;21.60;99.90
9509;DHT22;4792;50.088;8.122;2022-10-17T14:44:17;21.50;99.90
9509;DHT22;4792;50.088;8.122;2022-10-17T14:46:52;21.90;99.90
9509;DHT22;4792;50.088;8.122;2022-10-17T14:49:27;22.40;99.90
9509;DHT22;4792;50.088;8.122;2022-10-17T14:52:19;23.10;99.90
9509;DHT22;4792;50.088;8.122;2022-10-17T14:54:50;23.70;99.90
9509;DHT22;4792;50.088;8.122;2022-10-17T14:57:23;24.10;99.90
9509;DHT22;4792;50.088;8.122;2022-10-17T14:59:51;24.70;99.90
9509;DHT22;4792;50.088;8.122;2022-10-17T15:02:23;24.90;99.90
9509;DHT22;4792;50.088;8.122;2022-10-17T15:04:52;25.00;99.90
9509;DHT22;4792;50.088;8.122;2022-10-17T15:07:20;25.10;99.90
9509;DHT22;4792;50.088;8.122;2022-10-17T15:09:50;25.20;99.90
9509;DHT22;4792;50.088;8.122;2022-10-17T15:12:20;25.20;99.90
9509;DHT22;4792;50.088;8.122;2022-10-17T15:14:49;25.20;99.90
9509;DHT22;4792;50.088;8.122;2022-10-17T15:17:20;24.60;99.90
9509;DHT22;4792;50.088;8.122;2022-10-17T15:19:50;24.20;99.90
9509;DHT22;4792;50.088;8.122;2022-10-17T15:22:18;23.80;99.90
9509;DHT22;4792;50.088;8.122;2022-10-17T15:24:47;23.10;99.90
9509;DHT22;4792;50.088;8.122;2022-10-17T15:27:16;22.50;99.90
9509;DHT22;4792;50.088;8.122;2022-10-17T15:29:45;22.10;99.90
9509;DHT22;4792;50.088;8.122;2022-10-17T15:32:14;21.90;99.90
9509;DHT22;4792;50.088;8.122;2022-10-17T15:34:42;21.80;99.90
9509;DHT22;4792;50.088;8.122;2022-10-17T15:37:16;21.70;99.90
9509;DHT22;4792;50.088;8.122;2022-10-17T15:39:47;21.60;99.90
9509;DHT22;4792;50.088;8.122;2022-10-17T15:42:20;21.60;99.90
9509;DHT22;4792;50.088;8.122;2022-10-17T15:44:48;21.30;99.90
9509;DHT22;4792;50.088;8.122;2022-10-17T15:47:21;21.20;99.90
9509;DHT22;4792;50.088;8.122;2022-10-17T15:49:51;21.00;99.90
9509;DHT22;4792;50.088;8.122;2022-10-17T15:52:21;20.90;99.90
9509;DHT22;4792;50.088;8.122;2022-10-17T15:54:49;20.70;99.90
9509;DHT22;4792;50.088;8.122;2022-10-17T15:57:20;20.60;99.90
9509;DHT22;4792;50.088;8.122;2022-10-17T15:59:50;20.60;99.90
9509;DHT22;4792;50.088;8.122;2022-10-17T16:02:21;20.40;99.90
9509;DHT22;4792;50.088;8.122;2022-10-17T16:04:50;20.40;99.90
9509;DHT22;4792;50.088;8.122;2022-10-17T16:07:20;20.40;99.90
9509;DHT22;4792;50.088;8.122;2022-10-17T16:09:48;20.30;99.90
9509;DHT22;4792;50.088;8.122;2022-10-17T16:12:18;20.30;99.90
9509;DHT22;4792;50.088;8.122;2022-10-17T16:14:53;20.30;99.90
9509;DHT22;4792;50.088;8.122;2022-10-17T16:17:22;20.20;99.90
9509;DHT22;4792;50.088;8.122;2022-10-17T16:19:50;20.30;99.90
9509;DHT22;4792;50.088;8.122;2022-10-17T16:22:23;20.20;99.90
9509;DHT22;4792;50.088;8.122;2022-10-17T16:24:53;20.10;99.90
9509;DHT22;4792;50.088;8.122;2022-10-17T16:27:24;20.10;99.90
9509;DHT22;4792;50.088;8.122;2022-10-17T16:29:53;20.10;99.90
9509;DHT22;4792;50.088;8.122;2022-10-17T16:32:21;20.10;99.90
9509;DHT22;4792;50.088;8.122;2022-10-17T16:34:49;20.00;99.90
9509;DHT22;4792;50.088;8.122;2022-10-17T16:37:17;20.00;99.90
9509;DHT22;4792;50.088;8.122;2022-10-17T16:39:46;19.90;99.90
9509;DHT22;4792;50.088;8.122;2022-10-17T16:42:18;19.90;99.90
9509;DHT22;4792;50.088;8.122;2022-10-17T16:44:46;19.80;99.90
9509;DHT22;4792;50.088;8.122;2022-10-17T16:47:14;19.80;99.90
9509;DHT22;4792;50.088;8.122;2022-10-17T16:49:43;19.80;99.90
9509;DHT22;4792;50.088;8.122;2022-10-17T16:52:11;19.70;99.90